KCVO/CVO METAR and TAF weather

Enter ICAO airport designator
Station Type Date Time Source
KCVO METAR 2019/06/16 05:56 UTC NOAA

KCVO 160556Z AUTO 31010KT 10SM CLR 17/12 A3002 RMK AO2 SLP164 T01670117 10267 20167 53007


Station Type Date Time Source
KCVO Decoded METAR 2019/06/16 05:56 UTC NOAA

Corvallis, Corvallis Municipal Airport, OR, United States (KCVO) 44-30N 123-17W
Jun 16, 2019 - 01:56 AM EDT / 2019.06.16 0556 UTC
Wind: from the NW (310 degrees) at 12 MPH (10 KT):0
Visibility: 10 mile(s):0
Sky conditions: clear
Temperature: 62.1 F (16.7 C)
Dew Point: 53.1 F (11.7 C)
Relative Humidity: 72%
Pressure (altimeter): 30.02 in. Hg (1016 hPa)
Pressure tendency: 0.02 inches (0.7 hPa) higher than three hours ago
ob: KCVO 160556Z AUTO 31010KT 10SM CLR 17/12 A3002 RMK AO2 SLP164 T01670117 10267 20167 53007
cycle: 6

Station Type Date Time Source
KCVO TAF UTC NOAA

Error!

Example: see airport list